sensor_id;sensor_type;location;lat;lon;timestamp;P1;durP1;ratioP1;P2;durP2;ratioP2
56960;SDS011;42857;49.768;22.716;2022-08-30T00:00:22;9.30;;;5.65;;
56960;SDS011;42857;49.768;22.716;2022-08-30T00:03:07;6.45;;;4.97;;
56960;SDS011;42857;49.768;22.716;2022-08-30T00:05:34;6.63;;;5.20;;
56960;SDS011;42857;49.768;22.716;2022-08-30T00:08:00;7.18;;;5.25;;
56960;SDS011;42857;49.768;22.716;2022-08-30T00:10:27;7.47;;;5.50;;
56960;SDS011;42857;49.768;22.716;2022-08-30T00:12:54;9.07;;;5.68;;
56960;SDS011;42857;49.768;22.716;2022-08-30T00:15:20;8.90;;;5.50;;
56960;SDS011;42857;49.768;22.716;2022-08-30T00:17:46;6.28;;;5.55;;
56960;SDS011;42857;49.768;22.716;2022-08-30T00:20:13;10.30;;;5.50;;
56960;SDS011;42857;49.768;22.716;2022-08-30T00:22:40;7.80;;;5.40;;
56960;SDS011;42857;49.768;22.716;2022-08-30T00:25:06;6.63;;;5.93;;
56960;SDS011;42857;49.768;22.716;2022-08-30T00:27:33;8.57;;;5.57;;
56960;SDS011;42857;49.768;22.716;2022-08-30T00:29:59;7.47;;;5.32;;
56960;SDS011;42857;49.768;22.716;2022-08-30T00:32:25;7.35;;;6.38;;
56960;SDS011;42857;49.768;22.716;2022-08-30T00:34:51;8.40;;;6.30;;
56960;SDS011;42857;49.768;22.716;2022-08-30T00:37:18;10.88;;;5.95;;
56960;SDS011;42857;49.768;22.716;2022-08-30T00:39:44;11.63;;;6.30;;
56960;SDS011;42857;49.768;22.716;2022-08-30T00:42:10;8.50;;;5.47;;
56960;SDS011;42857;49.768;22.716;2022-08-30T00:44:36;8.45;;;5.72;;
56960;SDS011;42857;49.768;22.716;2022-08-30T00:47:03;14.23;;;6.00;;
56960;SDS011;42857;49.768;22.716;2022-08-30T00:49:29;9.55;;;6.07;;
56960;SDS011;42857;49.768;22.716;2022-08-30T00:51:55;9.18;;;6.50;;
56960;SDS011;42857;49.768;22.716;2022-08-30T00:54:22;8.02;;;6.20;;
56960;SDS011;42857;49.768;22.716;2022-08-30T00:56:49;9.98;;;6.38;;
56960;SDS011;42857;49.768;22.716;2022-08-30T00:59:15;11.48;;;6.45;;
56960;SDS011;42857;49.768;22.716;2022-08-30T01:01:41;8.05;;;6.00;;
56960;SDS011;42857;49.768;22.716;2022-08-30T01:04:07;8.05;;;6.07;;
56960;SDS011;42857;49.768;22.716;2022-08-30T01:06:34;6.60;;;5.72;;
56960;SDS011;42857;49.768;22.716;2022-08-30T01:09:02;9.15;;;5.95;;
56960;SDS011;42857;49.768;22.716;2022-08-30T01:11:28;10.80;;;6.82;;
56960;SDS011;42857;49.768;22.716;2022-08-30T01:13:56;9.02;;;6.35;;
56960;SDS011;42857;49.768;22.716;2022-08-30T01:16:22;8.27;;;6.15;;
56960;SDS011;42857;49.768;22.716;2022-08-30T01:18:50;6.60;;;5.70;;
56960;SDS011;42857;49.768;22.716;2022-08-30T01:21:21;12.13;;;6.50;;
56960;SDS011;42857;49.768;22.716;2022-08-30T01:23:49;12.77;;;7.43;;
56960;SDS011;42857;49.768;22.716;2022-08-30T01:26:18;10.27;;;6.70;;
56960;SDS011;42857;49.768;22.716;2022-08-30T01:28:45;9.48;;;7.40;;
56960;SDS011;42857;49.768;22.716;2022-08-30T01:31:12;6.43;;;5.70;;
56960;SDS011;42857;49.768;22.716;2022-08-30T01:33:38;9.15;;;6.78;;
56960;SDS011;42857;49.768;22.716;2022-08-30T01:36:05;7.38;;;6.68;;
56960;SDS011;42857;49.768;22.716;2022-08-30T01:38:53;7.80;;;6.95;;
56960;SDS011;42857;49.768;22.716;2022-08-30T01:43:48;9.32;;;7.30;;
56960;SDS011;42857;49.768;22.716;2022-08-30T01:46:14;9.60;;;7.88;;
56960;SDS011;42857;49.768;22.716;2022-08-30T01:48:42;11.90;;;6.75;;
56960;SDS011;42857;49.768;22.716;2022-08-30T01:51:09;9.13;;;6.60;;
56960;SDS011;42857;49.768;22.716;2022-08-30T01:53:35;11.13;;;7.00;;
56960;SDS011;42857;49.768;22.716;2022-08-30T01:56:02;9.35;;;6.28;;
56960;SDS011;42857;49.768;22.716;2022-08-30T01:58:29;8.13;;;6.60;;
56960;SDS011;42857;49.768;22.716;2022-08-30T02:00:55;9.48;;;6.13;;
56960;SDS011;42857;49.768;22.716;2022-08-30T02:03:22;10.88;;;6.90;;
56960;SDS011;42857;49.768;22.716;2022-08-30T02:05:48;10.68;;;6.78;;
56960;SDS011;42857;49.768;22.716;2022-08-30T02:08:14;8.55;;;6.55;;
56960;SDS011;42857;49.768;22.716;2022-08-30T02:10:40;9.95;;;7.07;;
56960;SDS011;42857;49.768;22.716;2022-08-30T02:13:06;9.50;;;6.75;;
56960;SDS011;42857;49.768;22.716;2022-08-30T02:15:33;7.70;;;6.43;;
56960;SDS011;42857;49.768;22.716;2022-08-30T02:17:59;8.48;;;6.50;;
56960;SDS011;42857;49.768;22.716;2022-08-30T02:20:25;9.40;;;6.72;;
56960;SDS011;42857;49.768;22.716;2022-08-30T02:22:51;9.38;;;6.60;;
56960;SDS011;42857;49.768;22.716;2022-08-30T02:25:17;9.65;;;6.68;;
56960;SDS011;42857;49.768;22.716;2022-08-30T02:27:43;9.48;;;6.20;;
56960;SDS011;42857;49.768;22.716;2022-08-30T02:30:09;10.35;;;6.72;;
56960;SDS011;42857;49.768;22.716;2022-08-30T02:32:35;7.10;;;5.80;;
56960;SDS011;42857;49.768;22.716;2022-08-30T02:35:01;8.50;;;5.93;;
56960;SDS011;42857;49.768;22.716;2022-08-30T02:37:27;11.20;;;6.75;;
56960;SDS011;42857;49.768;22.716;2022-08-30T02:39:53;11.05;;;6.40;;
56960;SDS011;42857;49.768;22.716;2022-08-30T02:42:19;9.35;;;6.90;;
56960;SDS011;42857;49.768;22.716;2022-08-30T02:44:45;6.85;;;5.57;;
56960;SDS011;42857;49.768;22.716;2022-08-30T02:47:11;8.18;;;6.07;;
56960;SDS011;42857;49.768;22.716;2022-08-30T02:49:37;8.27;;;6.03;;
56960;SDS011;42857;49.768;22.716;2022-08-30T02:52:04;8.73;;;5.85;;
56960;SDS011;42857;49.768;22.716;2022-08-30T02:54:30;7.53;;;5.90;;
56960;SDS011;42857;49.768;22.716;2022-08-30T02:56:57;9.27;;;5.95;;
56960;SDS011;42857;49.768;22.716;2022-08-30T02:59:26;11.23;;;6.28;;
56960;SDS011;42857;49.768;22.716;2022-08-30T03:01:52;18.42;;;8.63;;
56960;SDS011;42857;49.768;22.716;2022-08-30T03:04:20;8.13;;;6.10;;
56960;SDS011;42857;49.768;22.716;2022-08-30T03:06:45;9.40;;;6.25;;
56960;SDS011;42857;49.768;22.716;2022-08-30T03:09:12;7.35;;;5.85;;
56960;SDS011;42857;49.768;22.716;2022-08-30T03:11:38;8.05;;;5.60;;
56960;SDS011;42857;49.768;22.716;2022-08-30T03:14:04;9.27;;;5.90;;
56960;SDS011;42857;49.768;22.716;2022-08-30T03:16:30;10.68;;;5.65;;
56960;SDS011;42857;49.768;22.716;2022-08-30T03:18:56;8.55;;;5.72;;
56960;SDS011;42857;49.768;22.716;2022-08-30T03:21:22;8.20;;;5.78;;
56960;SDS011;42857;49.768;22.716;2022-08-30T03:23:48;8.55;;;5.63;;
56960;SDS011;42857;49.768;22.716;2022-08-30T03:26:14;11.45;;;5.85;;
56960;SDS011;42857;49.768;22.716;2022-08-30T03:28:41;8.52;;;6.60;;
56960;SDS011;42857;49.768;22.716;2022-08-30T03:31:07;8.68;;;6.30;;
56960;SDS011;42857;49.768;22.716;2022-08-30T03:33:34;8.98;;;6.68;;
56960;SDS011;42857;49.768;22.716;2022-08-30T03:36:00;6.75;;;6.05;;
56960;SDS011;42857;49.768;22.716;2022-08-30T03:38:26;8.60;;;6.13;;
56960;SDS011;42857;49.768;22.716;2022-08-30T03:40:52;7.78;;;6.28;;
56960;SDS011;42857;49.768;22.716;2022-08-30T03:43:18;10.00;;;5.75;;
56960;SDS011;42857;49.768;22.716;2022-08-30T03:45:44;8.88;;;6.13;;
56960;SDS011;42857;49.768;22.716;2022-08-30T03:48:10;11.65;;;6.53;;
56960;SDS011;42857;49.768;22.716;2022-08-30T03:50:36;8.55;;;6.60;;
56960;SDS011;42857;49.768;22.716;2022-08-30T03:53:02;7.25;;;5.38;;
56960;SDS011;42857;49.768;22.716;2022-08-30T03:55:28;7.13;;;5.80;;
56960;SDS011;42857;49.768;22.716;2022-08-30T03:57:55;7.60;;;5.63;;
56960;SDS011;42857;49.768;22.716;2022-08-30T04:00:21;8.48;;;6.22;;
56960;SDS011;42857;49.768;22.716;2022-08-30T04:02:47;7.22;;;5.53;;
56960;SDS011;42857;49.768;22.716;2022-08-30T04:05:13;9.50;;;6.03;;
56960;SDS011;42857;49.768;22.716;2022-08-30T04:07:39;7.97;;;6.38;;
56960;SDS011;42857;49.768;22.716;2022-08-30T04:10:05;9.60;;;6.80;;
56960;SDS011;42857;49.768;22.716;2022-08-30T04:12:32;8.35;;;6.88;;
56960;SDS011;42857;49.768;22.716;2022-08-30T04:14:58;10.80;;;6.57;;
56960;SDS011;42857;49.768;22.716;2022-08-30T04:17:24;12.27;;;7.47;;
56960;SDS011;42857;49.768;22.716;2022-08-30T04:19:50;14.43;;;6.72;;
56960;SDS011;42857;49.768;22.716;2022-08-30T04:22:16;10.85;;;7.13;;
56960;SDS011;42857;49.768;22.716;2022-08-30T04:24:42;10.98;;;7.35;;
56960;SDS011;42857;49.768;22.716;2022-08-30T04:27:08;15.40;;;7.10;;
56960;SDS011;42857;49.768;22.716;2022-08-30T04:29:34;10.50;;;6.40;;
56960;SDS011;42857;49.768;22.716;2022-08-30T04:32:00;9.27;;;5.97;;
56960;SDS011;42857;49.768;22.716;2022-08-30T04:34:26;8.40;;;6.30;;
56960;SDS011;42857;49.768;22.716;2022-08-30T04:36:52;8.18;;;6.32;;
56960;SDS011;42857;49.768;22.716;2022-08-30T04:39:18;7.63;;;5.72;;
56960;SDS011;42857;49.768;22.716;2022-08-30T04:41:44;14.95;;;11.80;;
56960;SDS011;42857;49.768;22.716;2022-08-30T04:44:10;10.18;;;7.78;;
56960;SDS011;42857;49.768;22.716;2022-08-30T04:46:36;9.90;;;5.90;;
56960;SDS011;42857;49.768;22.716;2022-08-30T04:49:02;7.75;;;5.90;;
56960;SDS011;42857;49.768;22.716;2022-08-30T04:51:28;8.55;;;6.35;;
56960;SDS011;42857;49.768;22.716;2022-08-30T04:53:54;9.13;;;7.22;;
56960;SDS011;42857;49.768;22.716;2022-08-30T04:56:21;10.88;;;6.43;;
56960;SDS011;42857;49.768;22.716;2022-08-30T04:58:48;11.35;;;7.53;;
56960;SDS011;42857;49.768;22.716;2022-08-30T05:01:16;8.13;;;7.28;;
56960;SDS011;42857;49.768;22.716;2022-08-30T05:03:42;8.95;;;7.45;;
56960;SDS011;42857;49.768;22.716;2022-08-30T05:06:12;9.20;;;7.53;;
56960;SDS011;42857;49.768;22.716;2022-08-30T05:08:38;12.40;;;8.77;;
56960;SDS011;42857;49.768;22.716;2022-08-30T05:11:04;11.02;;;8.23;;
56960;SDS011;42857;49.768;22.716;2022-08-30T05:13:30;13.35;;;8.23;;
56960;SDS011;42857;49.768;22.716;2022-08-30T05:15:56;10.88;;;8.10;;
56960;SDS011;42857;49.768;22.716;2022-08-30T05:18:24;10.73;;;7.82;;
56960;SDS011;42857;49.768;22.716;2022-08-30T05:20:50;8.88;;;7.30;;
56960;SDS011;42857;49.768;22.716;2022-08-30T05:23:27;8.93;;;7.95;;
56960;SDS011;42857;49.768;22.716;2022-08-30T05:25:53;10.32;;;7.95;;
56960;SDS011;42857;49.768;22.716;2022-08-30T05:28:19;9.10;;;7.80;;
56960;SDS011;42857;49.768;22.716;2022-08-30T05:30:45;8.35;;;7.25;;
56960;SDS011;42857;49.768;22.716;2022-08-30T05:33:11;7.78;;;6.63;;
56960;SDS011;42857;49.768;22.716;2022-08-30T05:35:37;9.20;;;7.20;;
56960;SDS011;42857;49.768;22.716;2022-08-30T05:38:04;8.93;;;7.60;;
56960;SDS011;42857;49.768;22.716;2022-08-30T05:40:30;10.63;;;8.77;;
56960;SDS011;42857;49.768;22.716;2022-08-30T05:42:56;10.07;;;8.98;;
56960;SDS011;42857;49.768;22.716;2022-08-30T05:45:22;14.57;;;9.45;;
56960;SDS011;42857;49.768;22.716;2022-08-30T05:47:48;12.70;;;9.38;;
56960;SDS011;42857;49.768;22.716;2022-08-30T05:50:14;11.95;;;9.27;;
56960;SDS011;42857;49.768;22.716;2022-08-30T05:52:40;10.82;;;8.55;;
56960;SDS011;42857;49.768;22.716;2022-08-30T05:55:07;13.07;;;10.00;;
56960;SDS011;42857;49.768;22.716;2022-08-30T05:57:35;11.73;;;9.10;;
56960;SDS011;42857;49.768;22.716;2022-08-30T06:00:03;11.35;;;9.70;;
56960;SDS011;42857;49.768;22.716;2022-08-30T06:02:30;10.07;;;8.52;;
56960;SDS011;42857;49.768;22.716;2022-08-30T06:04:56;10.73;;;8.27;;
56960;SDS011;42857;49.768;22.716;2022-08-30T06:07:22;9.52;;;8.07;;
56960;SDS011;42857;49.768;22.716;2022-08-30T06:09:48;10.25;;;7.95;;
56960;SDS011;42857;49.768;22.716;2022-08-30T06:12:14;10.27;;;7.57;;
56960;SDS011;42857;49.768;22.716;2022-08-30T06:14:40;10.63;;;7.55;;
56960;SDS011;42857;49.768;22.716;2022-08-30T06:17:06;10.50;;;7.65;;
56960;SDS011;42857;49.768;22.716;2022-08-30T06:19:32;8.20;;;7.40;;
56960;SDS011;42857;49.768;22.716;2022-08-30T06:21:58;8.80;;;7.68;;
56960;SDS011;42857;49.768;22.716;2022-08-30T06:24:24;9.98;;;7.68;;
56960;SDS011;42857;49.768;22.716;2022-08-30T06:26:50;9.13;;;6.90;;
56960;SDS011;42857;49.768;22.716;2022-08-30T06:29:17;8.88;;;7.30;;
56960;SDS011;42857;49.768;22.716;2022-08-30T06:31:43;8.82;;;7.05;;
56960;SDS011;42857;49.768;22.716;2022-08-30T06:34:09;8.45;;;5.80;;
56960;SDS011;42857;49.768;22.716;2022-08-30T06:36:35;7.68;;;6.20;;
56960;SDS011;42857;49.768;22.716;2022-08-30T06:39:03;10.63;;;6.38;;
56960;SDS011;42857;49.768;22.716;2022-08-30T06:41:30;9.07;;;5.32;;
56960;SDS011;42857;49.768;22.716;2022-08-30T06:43:57;8.07;;;6.00;;
56960;SDS011;42857;49.768;22.716;2022-08-30T06:46:24;6.93;;;4.82;;
56960;SDS011;42857;49.768;22.716;2022-08-30T06:48:51;7.18;;;4.30;;
56960;SDS011;42857;49.768;22.716;2022-08-30T06:51:20;6.00;;;4.18;;
56960;SDS011;42857;49.768;22.716;2022-08-30T06:53:47;5.45;;;4.07;;
56960;SDS011;42857;49.768;22.716;2022-08-30T06:56:13;5.93;;;3.92;;
56960;SDS011;42857;49.768;22.716;2022-08-30T06:58:39;5.10;;;3.80;;
56960;SDS011;42857;49.768;22.716;2022-08-30T07:01:05;5.78;;;4.40;;
56960;SDS011;42857;49.768;22.716;2022-08-30T07:03:32;5.22;;;3.60;;
56960;SDS011;42857;49.768;22.716;2022-08-30T07:05:58;8.00;;;3.97;;
56960;SDS011;42857;49.768;22.716;2022-08-30T07:08:24;5.40;;;3.95;;
56960;SDS011;42857;49.768;22.716;2022-08-30T07:10:51;7.28;;;3.58;;
56960;SDS011;42857;49.768;22.716;2022-08-30T07:13:18;6.82;;;4.20;;
56960;SDS011;42857;49.768;22.716;2022-08-30T07:15:45;5.10;;;3.30;;
56960;SDS011;42857;49.768;22.716;2022-08-30T07:18:11;7.38;;;3.40;;
56960;SDS011;42857;49.768;22.716;2022-08-30T07:20:56;4.97;;;3.50;;
56960;SDS011;42857;49.768;22.716;2022-08-30T07:23:22;7.60;;;3.40;;
56960;SDS011;42857;49.768;22.716;2022-08-30T07:25:48;8.15;;;3.60;;
56960;SDS011;42857;49.768;22.716;2022-08-30T07:28:14;6.45;;;3.10;;
56960;SDS011;42857;49.768;22.716;2022-08-30T07:30:41;8.05;;;3.60;;
56960;SDS011;42857;49.768;22.716;2022-08-30T07:33:07;5.00;;;3.70;;
56960;SDS011;42857;49.768;22.716;2022-08-30T07:35:33;7.30;;;3.65;;
56960;SDS011;42857;49.768;22.716;2022-08-30T07:38:01;7.22;;;3.60;;
56960;SDS011;42857;49.768;22.716;2022-08-30T07:40:27;5.30;;;3.55;;
56960;SDS011;42857;49.768;22.716;2022-08-30T07:43:02;4.78;;;3.00;;
56960;SDS011;42857;49.768;22.716;2022-08-30T07:45:28;7.13;;;3.60;;
56960;SDS011;42857;49.768;22.716;2022-08-30T07:47:54;5.82;;;3.90;;
56960;SDS011;42857;49.768;22.716;2022-08-30T07:50:21;5.68;;;3.05;;
56960;SDS011;42857;49.768;22.716;2022-08-30T07:52:47;5.20;;;3.40;;
56960;SDS011;42857;49.768;22.716;2022-08-30T07:55:13;7.95;;;3.33;;
56960;SDS011;42857;49.768;22.716;2022-08-30T07:57:40;6.18;;;3.53;;
56960;SDS011;42857;49.768;22.716;2022-08-30T08:00:06;5.82;;;2.95;;
56960;SDS011;42857;49.768;22.716;2022-08-30T08:02:33;5.90;;;3.17;;
56960;SDS011;42857;49.768;22.716;2022-08-30T08:05:01;4.57;;;2.95;;
56960;SDS011;42857;49.768;22.716;2022-08-30T08:07:27;6.63;;;3.40;;
56960;SDS011;42857;49.768;22.716;2022-08-30T08:09:52;5.03;;;3.20;;
56960;SDS011;42857;49.768;22.716;2022-08-30T08:12:18;5.30;;;3.42;;
56960;SDS011;42857;49.768;22.716;2022-08-30T08:14:44;6.43;;;3.22;;
56960;SDS011;42857;49.768;22.716;2022-08-30T08:17:11;5.35;;;3.15;;
56960;SDS011;42857;49.768;22.716;2022-08-30T08:19:37;4.50;;;2.92;;
56960;SDS011;42857;49.768;22.716;2022-08-30T08:22:03;5.25;;;3.35;;
56960;SDS011;42857;49.768;22.716;2022-08-30T08:24:29;6.20;;;3.50;;
56960;SDS011;42857;49.768;22.716;2022-08-30T08:26:55;5.10;;;3.05;;
56960;SDS011;42857;49.768;22.716;2022-08-30T08:29:21;3.78;;;3.05;;
56960;SDS011;42857;49.768;22.716;2022-08-30T08:31:47;4.65;;;2.88;;
56960;SDS011;42857;49.768;22.716;2022-08-30T08:34:13;5.18;;;2.78;;
56960;SDS011;42857;49.768;22.716;2022-08-30T08:36:40;5.18;;;3.00;;
56960;SDS011;42857;49.768;22.716;2022-08-30T08:39:07;6.43;;;2.88;;
56960;SDS011;42857;49.768;22.716;2022-08-30T08:41:49;4.13;;;3.22;;
56960;SDS011;42857;49.768;22.716;2022-08-30T08:49:33;7.18;;;3.20;;
56960;SDS011;42857;49.768;22.716;2022-08-30T08:52:00;7.93;;;3.03;;
56960;SDS011;42857;49.768;22.716;2022-08-30T08:54:50;7.13;;;3.20;;
56960;SDS011;42857;49.768;22.716;2022-08-30T08:57:17;5.00;;;3.20;;
56960;SDS011;42857;49.768;22.716;2022-08-30T08:59:43;7.25;;;3.47;;
56960;SDS011;42857;49.768;22.716;2022-08-30T09:02:24;3.60;;;3.10;;
56960;SDS011;42857;49.768;22.716;2022-08-30T09:04:53;6.45;;;3.17;;
56960;SDS011;42857;49.768;22.716;2022-08-30T09:07:20;4.65;;;2.88;;
56960;SDS011;42857;49.768;22.716;2022-08-30T09:09:47;5.20;;;3.70;;
56960;SDS011;42857;49.768;22.716;2022-08-30T09:12:13;11.45;;;2.90;;
56960;SDS011;42857;49.768;22.716;2022-08-30T09:14:40;6.22;;;2.95;;
56960;SDS011;42857;49.768;22.716;2022-08-30T09:17:11;6.32;;;2.85;;
56960;SDS011;42857;49.768;22.716;2022-08-30T09:22:20;4.20;;;3.00;;
56960;SDS011;42857;49.768;22.716;2022-08-30T09:24:48;5.03;;;3.00;;
56960;SDS011;42857;49.768;22.716;2022-08-30T09:29:48;4.22;;;2.95;;
56960;SDS011;42857;49.768;22.716;2022-08-30T09:35:11;4.85;;;3.08;;
56960;SDS011;42857;49.768;22.716;2022-08-30T09:37:40;4.78;;;2.75;;
56960;SDS011;42857;49.768;22.716;2022-08-30T09:40:11;3.47;;;2.75;;
56960;SDS011;42857;49.768;22.716;2022-08-30T09:42:38;5.70;;;2.90;;
56960;SDS011;42857;49.768;22.716;2022-08-30T09:45:04;3.50;;;2.70;;
56960;SDS011;42857;49.768;22.716;2022-08-30T09:47:40;6.10;;;3.40;;
56960;SDS011;42857;49.768;22.716;2022-08-30T09:55:26;5.03;;;2.92;;
56960;SDS011;42857;49.768;22.716;2022-08-30T09:58:03;6.40;;;3.00;;
56960;SDS011;42857;49.768;22.716;2022-08-30T10:00:33;4.60;;;2.88;;
56960;SDS011;42857;49.768;22.716;2022-08-30T10:10:51;3.75;;;2.33;;
56960;SDS011;42857;49.768;22.716;2022-08-30T10:13:40;4.28;;;2.50;;
56960;SDS011;42857;49.768;22.716;2022-08-30T10:16:14;6.18;;;2.70;;
56960;SDS011;42857;49.768;22.716;2022-08-30T10:21:26;3.65;;;2.20;;
56960;SDS011;42857;49.768;22.716;2022-08-30T10:23:55;3.30;;;2.38;;
56960;SDS011;42857;49.768;22.716;2022-08-30T10:26:27;4.63;;;2.40;;
56960;SDS011;42857;49.768;22.716;2022-08-30T10:29:00;6.45;;;2.65;;
56960;SDS011;42857;49.768;22.716;2022-08-30T10:34:23;2.88;;;2.10;;
56960;SDS011;42857;49.768;22.716;2022-08-30T10:36:53;3.20;;;2.03;;
56960;SDS011;42857;49.768;22.716;2022-08-30T10:39:22;4.25;;;2.38;;
56960;SDS011;42857;49.768;22.716;2022-08-30T10:41:52;4.00;;;2.53;;
56960;SDS011;42857;49.768;22.716;2022-08-30T10:44:31;3.30;;;2.40;;
56960;SDS011;42857;49.768;22.716;2022-08-30T10:49:47;4.18;;;2.30;;
56960;SDS011;42857;49.768;22.716;2022-08-30T10:57:06;2.35;;;1.98;;
56960;SDS011;42857;49.768;22.716;2022-08-30T10:59:33;2.30;;;2.10;;
56960;SDS011;42857;49.768;22.716;2022-08-30T11:02:10;4.38;;;2.10;;
56960;SDS011;42857;49.768;22.716;2022-08-30T11:14:58;3.05;;;2.28;;
56960;SDS011;42857;49.768;22.716;2022-08-30T11:17:37;4.70;;;2.25;;
56960;SDS011;42857;49.768;22.716;2022-08-30T11:20:04;4.93;;;2.13;;
56960;SDS011;42857;49.768;22.716;2022-08-30T11:22:32;2.30;;;2.10;;
56960;SDS011;42857;49.768;22.716;2022-08-30T11:25:07;3.30;;;2.50;;
56960;SDS011;42857;49.768;22.716;2022-08-30T11:27:38;7.28;;;2.50;;
56960;SDS011;42857;49.768;22.716;2022-08-30T11:35:34;3.92;;;2.20;;
56960;SDS011;42857;49.768;22.716;2022-08-30T11:38:00;5.05;;;2.45;;
56960;SDS011;42857;49.768;22.716;2022-08-30T11:54:01;3.15;;;2.10;;
56960;SDS011;42857;49.768;22.716;2022-08-30T11:56:33;3.85;;;2.28;;
56960;SDS011;42857;49.768;22.716;2022-08-30T11:59:06;4.45;;;2.55;;
56960;SDS011;42857;49.768;22.716;2022-08-30T12:01:42;3.63;;;2.45;;
56960;SDS011;42857;49.768;22.716;2022-08-30T12:14:48;4.88;;;2.63;;
56960;SDS011;42857;49.768;22.716;2022-08-30T12:17:19;5.55;;;3.05;;
56960;SDS011;42857;49.768;22.716;2022-08-30T12:20:10;5.13;;;2.42;;
56960;SDS011;42857;49.768;22.716;2022-08-30T12:22:38;4.30;;;2.83;;
56960;SDS011;42857;49.768;22.716;2022-08-30T12:25:13;7.43;;;2.90;;
56960;SDS011;42857;49.768;22.716;2022-08-30T12:27:40;3.35;;;2.55;;
56960;SDS011;42857;49.768;22.716;2022-08-30T12:30:06;3.80;;;2.63;;
56960;SDS011;42857;49.768;22.716;2022-08-30T12:32:33;5.43;;;2.75;;
56960;SDS011;42857;49.768;22.716;2022-08-30T12:35:15;4.53;;;2.60;;
56960;SDS011;42857;49.768;22.716;2022-08-30T12:37:43;3.40;;;2.50;;
56960;SDS011;42857;49.768;22.716;2022-08-30T12:42:36;3.22;;;2.47;;
56960;SDS011;42857;49.768;22.716;2022-08-30T12:45:06;3.03;;;2.50;;
56960;SDS011;42857;49.768;22.716;2022-08-30T12:50:04;3.72;;;2.67;;
56960;SDS011;42857;49.768;22.716;2022-08-30T12:53:13;3.10;;;2.30;;
56960;SDS011;42857;49.768;22.716;2022-08-30T12:55:21;3.53;;;2.42;;
56960;SDS011;42857;49.768;22.716;2022-08-30T12:58:04;2.63;;;2.42;;
56960;SDS011;42857;49.768;22.716;2022-08-30T13:00:40;3.33;;;2.65;;
56960;SDS011;42857;49.768;22.716;2022-08-30T13:05:48;3.22;;;2.13;;
56960;SDS011;42857;49.768;22.716;2022-08-30T13:13:33;4.93;;;2.22;;
56960;SDS011;42857;49.768;22.716;2022-08-30T13:16:06;3.40;;;2.38;;
56960;SDS011;42857;49.768;22.716;2022-08-30T13:18:33;2.92;;;2.40;;
56960;SDS011;42857;49.768;22.716;2022-08-30T13:21:19;3.33;;;2.65;;
56960;SDS011;42857;49.768;22.716;2022-08-30T13:23:46;4.55;;;2.30;;
56960;SDS011;42857;49.768;22.716;2022-08-30T13:26:13;3.22;;;2.70;;
56960;SDS011;42857;49.768;22.716;2022-08-30T13:28:44;3.45;;;2.80;;
56960;SDS011;42857;49.768;22.716;2022-08-30T13:31:10;5.05;;;3.10;;
56960;SDS011;42857;49.768;22.716;2022-08-30T13:33:36;3.00;;;2.65;;
56960;SDS011;42857;49.768;22.716;2022-08-30T13:36:02;3.95;;;3.05;;
56960;SDS011;42857;49.768;22.716;2022-08-30T13:38:28;6.18;;;3.03;;
56960;SDS011;42857;49.768;22.716;2022-08-30T13:40:54;4.03;;;2.80;;
56960;SDS011;42857;49.768;22.716;2022-08-30T13:43:20;6.97;;;2.60;;
56960;SDS011;42857;49.768;22.716;2022-08-30T13:45:46;3.00;;;2.60;;
56960;SDS011;42857;49.768;22.716;2022-08-30T13:48:12;3.15;;;2.85;;
56960;SDS011;42857;49.768;22.716;2022-08-30T13:50:39;5.78;;;2.72;;
56960;SDS011;42857;49.768;22.716;2022-08-30T13:53:07;3.10;;;2.88;;
56960;SDS011;42857;49.768;22.716;2022-08-30T13:55:33;7.03;;;3.35;;
56960;SDS011;42857;49.768;22.716;2022-08-30T13:57:59;3.97;;;2.90;;
56960;SDS011;42857;49.768;22.716;2022-08-30T14:00:25;3.67;;;3.03;;
56960;SDS011;42857;49.768;22.716;2022-08-30T14:02:52;3.30;;;2.80;;
56960;SDS011;42857;49.768;22.716;2022-08-30T14:05:20;6.10;;;3.55;;
56960;SDS011;42857;49.768;22.716;2022-08-30T14:07:46;3.85;;;3.20;;
56960;SDS011;42857;49.768;22.716;2022-08-30T14:10:13;2.78;;;2.58;;
56960;SDS011;42857;49.768;22.716;2022-08-30T14:12:39;3.17;;;2.88;;
56960;SDS011;42857;49.768;22.716;2022-08-30T14:15:05;3.15;;;2.78;;
56960;SDS011;42857;49.768;22.716;2022-08-30T14:17:31;3.40;;;3.10;;
56960;SDS011;42857;49.768;22.716;2022-08-30T14:22:26;3.95;;;2.90;;
56960;SDS011;42857;49.768;22.716;2022-08-30T14:24:52;3.38;;;3.00;;
56960;SDS011;42857;49.768;22.716;2022-08-30T14:27:18;3.45;;;2.80;;
56960;SDS011;42857;49.768;22.716;2022-08-30T14:29:44;3.97;;;2.85;;
56960;SDS011;42857;49.768;22.716;2022-08-30T14:32:10;3.63;;;3.33;;
56960;SDS011;42857;49.768;22.716;2022-08-30T14:34:36;3.90;;;3.40;;
56960;SDS011;42857;49.768;22.716;2022-08-30T14:37:03;4.38;;;3.35;;
56960;SDS011;42857;49.768;22.716;2022-08-30T14:39:30;4.20;;;3.13;;
56960;SDS011;42857;49.768;22.716;2022-08-30T14:41:56;4.40;;;3.35;;
56960;SDS011;42857;49.768;22.716;2022-08-30T14:44:23;3.70;;;3.40;;
56960;SDS011;42857;49.768;22.716;2022-08-30T14:46:49;3.97;;;3.30;;
56960;SDS011;42857;49.768;22.716;2022-08-30T14:49:16;3.58;;;2.60;;
56960;SDS011;42857;49.768;22.716;2022-08-30T14:51:43;5.93;;;3.60;;
56960;SDS011;42857;49.768;22.716;2022-08-30T14:54:12;3.67;;;3.38;;
56960;SDS011;42857;49.768;22.716;2022-08-30T14:56:39;4.10;;;3.15;;
56960;SDS011;42857;49.768;22.716;2022-08-30T14:59:05;3.75;;;3.45;;
56960;SDS011;42857;49.768;22.716;2022-08-30T15:01:31;3.75;;;3.45;;
56960;SDS011;42857;49.768;22.716;2022-08-30T15:03:58;3.65;;;3.30;;
56960;SDS011;42857;49.768;22.716;2022-08-30T15:06:24;4.10;;;3.80;;
56960;SDS011;42857;49.768;22.716;2022-08-30T15:08:50;4.85;;;3.88;;
56960;SDS011;42857;49.768;22.716;2022-08-30T15:11:17;4.30;;;3.75;;
56960;SDS011;42857;49.768;22.716;2022-08-30T15:13:44;4.10;;;3.70;;
56960;SDS011;42857;49.768;22.716;2022-08-30T15:16:17;3.95;;;3.65;;
56960;SDS011;42857;49.768;22.716;2022-08-30T15:18:44;4.90;;;3.80;;
56960;SDS011;42857;49.768;22.716;2022-08-30T15:21:10;4.28;;;3.72;;
56960;SDS011;42857;49.768;22.716;2022-08-30T15:23:37;4.00;;;3.63;;
56960;SDS011;42857;49.768;22.716;2022-08-30T15:26:03;4.70;;;4.18;;
56960;SDS011;42857;49.768;22.716;2022-08-30T15:28:29;4.55;;;3.92;;
56960;SDS011;42857;49.768;22.716;2022-08-30T15:30:55;3.72;;;3.42;;
56960;SDS011;42857;49.768;22.716;2022-08-30T15:33:21;4.22;;;3.60;;
56960;SDS011;42857;49.768;22.716;2022-08-30T15:35:49;4.43;;;4.03;;
56960;SDS011;42857;49.768;22.716;2022-08-30T15:38:16;4.93;;;3.95;;
56960;SDS011;42857;49.768;22.716;2022-08-30T15:40:44;6.10;;;4.30;;
56960;SDS011;42857;49.768;22.716;2022-08-30T15:43:10;23.33;;;5.35;;
56960;SDS011;42857;49.768;22.716;2022-08-30T15:45:36;5.97;;;4.30;;
56960;SDS011;42857;49.768;22.716;2022-08-30T15:48:02;5.97;;;4.18;;
56960;SDS011;42857;49.768;22.716;2022-08-30T15:50:28;9.93;;;4.70;;
56960;SDS011;42857;49.768;22.716;2022-08-30T15:52:54;9.82;;;4.63;;
56960;SDS011;42857;49.768;22.716;2022-08-30T15:55:20;5.22;;;4.10;;
56960;SDS011;42857;49.768;22.716;2022-08-30T15:57:46;5.07;;;4.38;;
56960;SDS011;42857;49.768;22.716;2022-08-30T16:00:12;7.35;;;4.60;;
56960;SDS011;42857;49.768;22.716;2022-08-30T16:02:38;5.05;;;4.55;;
56960;SDS011;42857;49.768;22.716;2022-08-30T16:05:04;6.03;;;4.55;;
56960;SDS011;42857;49.768;22.716;2022-08-30T16:07:30;7.63;;;4.95;;
56960;SDS011;42857;49.768;22.716;2022-08-30T16:09:56;6.57;;;4.97;;
56960;SDS011;42857;49.768;22.716;2022-08-30T16:12:22;5.43;;;4.90;;